Bookmark and Share
Track history (hours):
 

Katama

More information available from US FCC via Universal Licensing System and Coast Guard Vessel Documentation Center.

Last reported at 2014-Apr-23 02:33 UTC. Time now 2014-Apr-23 07:24 UTC.
Position N 41°31' W 070°40'.

Length 66 m; draft 3 m.

Type: Passenger vessel. MMSI: 367327330.

NotesDate/timePositionNaut miles runAvg speedWind from/ knotsBaromVisibWave heightAir tempDewpointWater temp
2014-Apr-23 02:33N 41°31' W 070°40'0 0.0
2014-Apr-23 01:33N 41°31' W 070°40'0 0.0
2014-Apr-23 00:33N 41°31' W 070°40'0 0.0
2014-Apr-22 23:33N 41°31' W 070°40'5 5.1
2014-Apr-22 22:33N 41°27' W 070°36'2 2.3
2014-Apr-22 21:34N 41°30' W 070°37'3 2.6
2014-Apr-22 20:33N 41°31' W 070°40'4 3.0
2014-Apr-22 19:14N 41°29' W 070°35'5 6.8
2014-Apr-22 18:33N 41°31' W 070°40'5 5.1
2014-Apr-22 17:33N 41°27' W 070°36'4 4.0
2014-Apr-22 16:34N 41°30' W 070°40'3 2.7
2014-Apr-22 15:30N 41°29' W 070°36'1 0.9
2014-Apr-22 14:12N 41°30' W 070°37'3 4.3
2014-Apr-22 13:33N 41°31' W 070°40'5 4.8
2014-Apr-22 12:30N 41°27' W 070°36'5 5.5
2014-Apr-22 11:33N 41°31' W 070°40'5 5.1
2014-Apr-22 10:33N 41°27' W 070°36'5 4.6
2014-Apr-22 09:34N 41°31' W 070°40'1 0.6
2014-Apr-22 08:33N 41°31' W 070°40'0 0.0
2014-Apr-22 07:33N 41°31' W 070°40'0 0.0
2014-Apr-22 06:33N 41°31' W 070°40'0 0.0
2014-Apr-22 05:33N 41°31' W 070°40'0 0.0
2014-Apr-22 04:33N 41°31' W 070°40'0 0.0
2014-Apr-22 03:34N 41°31' W 070°40'0 0.0
2014-Apr-22 02:34N 41°31' W 070°40'0 0.0
2014-Apr-22 01:33N 41°31' W 070°40'0 0.0
2014-Apr-22 00:33N 41°31' W 070°40'0 0.0
2014-Apr-21 23:33N 41°31' W 070°40'5 5.1
2014-Apr-21 22:33N 41°27' W 070°36'3 2.8
2014-Apr-21 21:34N 41°30' W 070°38'1 1.4
2014-Apr-21 20:34N 41°30' W 070°40'4 4.1
2014-Apr-21 19:33N 41°27' W 070°36'5 5.2
2014-Apr-21 18:34N 41°31' W 070°40'5 5.1
2014-Apr-21 17:33N 41°27' W 070°36'2 2.1
2014-Apr-21 16:34N 41°29' W 070°37'0 0.3
2014-Apr-21 15:19N 41°29' W 070°36'2 2.1
2014-Apr-21 14:23N 41°27' W 070°36'5 6.2
2014-Apr-21 13:33N 41°31' W 070°40'5 4.0
2014-Apr-21 12:15N 41°27' W 070°36'5 7.4
2014-Apr-21 11:34N 41°31' W 070°40'5 5.0
2014-Apr-21 10:33N 41°27' W 070°36'4 3.9
2014-Apr-21 09:34N 41°30' W 070°39'1 1.3
2014-Apr-21 08:33N 41°31' W 070°40'0 0.0
2014-Apr-21 07:34N 41°31' W 070°40'0 0.0
2014-Apr-21 06:33N 41°31' W 070°40'0 0.0
2014-Apr-21 05:33N 41°31' W 070°40'0 0.0
2014-Apr-21 04:33N 41°31' W 070°40'0 0.0
2014-Apr-21 03:33N 41°31' W 070°40'0 0.0
2014-Apr-21 02:33N 41°31' W 070°40'0 0.0
2014-Apr-21 01:33N 41°31' W 070°40'5 5.1
2014-Apr-21 00:33N 41°27' W 070°36'5 5.2
2014-Apr-20 23:33N 41°31' W 070°40'3 1.3
2014-Apr-20 21:34N 41°30' W 070°38'2 2.1
2014-Apr-20 20:31N 41°31' W 070°40'4 3.2
2014-Apr-20 19:12N 41°29' W 070°35'2 0.6
2014-Apr-20 16:33N 41°30' W 070°37'1 1.1
2014-Apr-20 15:12N 41°29' W 070°35'4 1.1
2014-Apr-20 11:14N 41°31' W 070°40'0 0.0
2014-Apr-20 10:33N 41°31' W 070°40'0 0.0
2014-Apr-20 09:23N 41°31' W 070°40'0 0.0
2014-Apr-20 05:29N 41°31' W 070°40'3 0.2
2014-Apr-19 14:09N 41°30' W 070°37'2 1.0
2014-Apr-19 12:11N 41°28' W 070°35'0 0.2
2014-Apr-19 10:05N 41°28' W 070°36'5 8.8
2014-Apr-19 09:33N 41°31' W 070°40'1 0.5
2014-Apr-19 08:32N 41°31' W 070°40'0 0.0
2014-Apr-19 07:33N 41°31' W 070°40'0 0.0
2014-Apr-19 06:33N 41°31' W 070°40'0 0.0
2014-Apr-19 05:33N 41°31' W 070°40'0 0.0
2014-Apr-19 04:33N 41°31' W 070°40'0 0.0
2014-Apr-19 03:33N 41°31' W 070°40'0 0.0
2014-Apr-19 02:33N 41°31' W 070°40'0 0.0
2014-Apr-19 01:33N 41°31' W 070°40'5 4.0
2014-Apr-19 00:17N 41°28' W 070°36'5 6.5
2014-Apr-18 23:30N 41°31' W 070°40'5 4.7
2014-Apr-18 22:24N 41°27' W 070°36'2 2.9
2014-Apr-18 21:34N 41°30' W 070°38'2 1.1
2014-Apr-18 19:20N 41°28' W 070°36'5 6.5
2014-Apr-18 18:33N 41°31' W 070°40'3 1.4
2014-Apr-18 16:34N 41°30' W 070°37'3 2.8
2014-Apr-18 15:33N 41°31' W 070°40'5 4.0
2014-Apr-18 14:15N 41°27' W 070°36'5 6.6
2014-Apr-18 13:28N 41°31' W 070°40'5 3.7
2014-Apr-18 12:06N 41°27' W 070°36'5 8.5
2014-Apr-18 11:33N 41°31' W 070°40'5 4.6
2014-Apr-18 10:33N 41°27' W 070°36'4 4.4
2014-Apr-18 09:33N 41°31' W 070°40'1 0.9
2014-Apr-18 08:33N 41°31' W 070°40'0 0.0
2014-Apr-18 07:34N 41°31' W 070°40'0 0.0
2014-Apr-18 06:22N 41°31' W 070°40'0 0.0
2014-Apr-18 04:29N 41°31' W 070°40'1 0.1
2014-Apr-17 21:21N 41°30' W 070°40'4 2.2
2014-Apr-17 19:23N 41°28' W 070°35'0 0.0
2014-Apr-17 14:24N 41°28' W 070°35'5 1.6
2014-Apr-17 11:20N 41°31' W 070°40'1 0.0
2014-Apr-15 16:30N 41°30' W 070°40'3 2.7
2014-Apr-15 15:15N 41°29' W 070°36'1 2.1
2014-Apr-15 14:33N 41°28' W 070°36'5 0.4
2014-Apr-15 01:32N 41°31' W 070°40'0 0.0
2014-Apr-15 00:34N 41°31' W 070°40'0 0.0
2014-Apr-14 23:33N 41°31' W 070°40'0 0.0
2014-Apr-14 22:34N 41°31' W 070°40'2 0.9
2014-Apr-14 20:33N 41°30' W 070°39'1 1.1
2014-Apr-14 19:34N 41°31' W 070°40'4 4.3
2014-Apr-14 18:32N 41°27' W 070°36'5 5.2
2014-Apr-14 17:33N 41°31' W 070°40'5 4.9
2014-Apr-14 16:31N 41°27' W 070°36'3 3.1
2014-Apr-14 15:32N 41°30' W 070°39'2 0.8
2014-Apr-14 13:33N 41°30' W 070°36'2 0.8
2014-Apr-14 11:34N 41°28' W 070°35'4 4.1
2014-Apr-14 10:33N 41°31' W 070°40'4 4.4
2014-Apr-14 09:33N 41°27' W 070°36'5 5.1
2014-Apr-14 08:32N 41°31' W 070°40'0 0.0
2014-Apr-14 07:34N 41°31' W 070°40'0 0.0
2014-Apr-14 06:33N 41°31' W 070°40'0 0.0
2014-Apr-14 05:33N 41°31' W 070°40'5 0.7
2014-Apr-13 22:30N 41°27' W 070°36'5 4.2
2014-Apr-13 21:16N 41°31' W 070°40'2 2.0
2014-Apr-13 20:30N 41°30' W 070°39'3 3.1
2014-Apr-13 19:25N 41°28' W 070°35'5 5.1
2014-Apr-13 18:26N 41°31' W 070°40'4 4.3
2014-Apr-13 17:34N 41°32' W 070°45'9 8.1
2014-Apr-13 16:27N 41°38' W 070°54'0 0.0
2014-Apr-13 15:33N 41°38' W 070°54'0 0.0
2014-Apr-13 14:33N 41°38' W 070°54'0 0.0
2014-Apr-13 13:33N 41°38' W 070°54'0 0.0
2014-Apr-13 12:33N 41°38' W 070°54'0 0.0
2014-Apr-13 11:33N 41°38' W 070°54'0 0.0
2014-Apr-13 10:33N 41°38' W 070°54'0 0.0
2014-Apr-13 09:32N 41°38' W 070°54'0 0.0
2014-Apr-13 08:31N 41°38' W 070°54'0 0.0
2014-Apr-13 07:26N 41°38' W 070°54'  

Dump ship's entire track history

sailing weather and tide predictions

Katama — WBP4751 — position and weather